createdAt,value
2023-01-12T00:02:19.064Z,65.18
2023-01-12T00:04:45.734Z,65.37
2023-01-12T00:07:13.162Z,64.91
2023-01-12T00:09:40.879Z,64.89
2023-01-12T00:12:09.463Z,64.55
2023-01-12T00:14:36.399Z,65.00
2023-01-12T00:17:03.162Z,65.28
2023-01-12T00:19:31.341Z,65.13
2023-01-12T00:21:59.195Z,65.16
2023-01-12T00:24:29.609Z,64.86
2023-01-12T00:26:57.157Z,64.92
2023-01-12T00:29:23.983Z,65.08
2023-01-12T00:31:50.593Z,64.95
2023-01-12T00:34:17.602Z,65.26
2023-01-12T00:36:44.952Z,65.07
2023-01-12T00:39:11.490Z,65.31
2023-01-12T00:41:38.633Z,65.09
2023-01-12T00:44:05.676Z,65.53
2023-01-12T00:46:32.690Z,65.31
2023-01-12T00:48:59.356Z,65.02
2023-01-12T00:51:25.981Z,64.77
2023-01-12T00:53:52.539Z,64.82
2023-01-12T00:56:19.120Z,65.12
2023-01-12T00:58:45.701Z,65.52
2023-01-12T01:01:12.364Z,65.86
2023-01-12T01:03:38.928Z,65.77
2023-01-12T01:06:06.288Z,66.56
2023-01-12T01:08:32.926Z,66.16
2023-01-12T01:11:10.705Z,66.46
2023-01-12T01:13:37.524Z,66.07
2023-01-12T01:16:04.653Z,66.57
2023-01-12T01:18:32.041Z,66.84
2023-01-12T01:20:58.701Z,66.20
2023-01-12T01:23:25.779Z,65.91
2023-01-12T01:25:52.727Z,65.73
2023-01-12T01:28:19.516Z,65.59
2023-01-12T01:30:46.380Z,65.47
2023-01-12T01:33:13.525Z,65.74
2023-01-12T01:35:40.104Z,65.53
2023-01-12T01:38:06.911Z,65.10
2023-01-12T01:40:33.479Z,65.29
2023-01-12T01:43:00.119Z,65.41
2023-01-12T01:45:26.757Z,65.72
2023-01-12T01:47:55.624Z,65.72
2023-01-12T01:50:26.418Z,65.35
2023-01-12T01:52:57.569Z,65.50
2023-01-12T01:55:26.636Z,65.01
2023-01-12T01:58:02.754Z,65.33
2023-01-12T02:00:29.767Z,64.72
2023-01-12T02:02:56.507Z,65.05
2023-01-12T02:05:24.767Z,65.18
2023-01-12T02:07:51.356Z,65.13
2023-01-12T02:10:18.437Z,64.91
2023-01-12T02:12:45.136Z,64.84
2023-01-12T02:15:11.738Z,65.24
2023-01-12T02:17:53.092Z,65.03
2023-01-12T02:20:57.308Z,64.81
2023-01-12T02:23:26.550Z,64.84
2023-01-12T02:26:04.966Z,64.50
2023-01-12T02:28:53.256Z,64.31
2023-01-12T02:32:21.426Z,64.09
2023-01-12T02:35:10.965Z,64.75
2023-01-12T02:37:48.498Z,63.35
2023-01-12T02:40:14.968Z,64.21
2023-01-12T02:42:43.761Z,64.05
2023-01-12T02:45:24.346Z,64.72
2023-01-12T02:48:28.609Z,64.48
2023-01-12T02:51:05.772Z,65.12
2023-01-12T02:53:37.542Z,64.70
2023-01-12T02:56:05.118Z,64.59
2023-01-12T02:58:32.867Z,64.26
2023-01-12T03:00:59.717Z,64.89
2023-01-12T03:03:26.412Z,64.47
2023-01-12T03:05:55.969Z,64.75
2023-01-12T03:08:22.518Z,64.50
2023-01-12T03:11:00.412Z,64.54
2023-01-12T03:13:27.604Z,63.93
2023-01-12T03:15:55.380Z,64.77
2023-01-12T03:18:29.547Z,64.24
2023-01-12T03:20:59.998Z,64.49
2023-01-12T03:23:33.792Z,64.32
2023-01-12T03:26:00.537Z,63.23
2023-01-12T03:28:28.912Z,64.35
2023-01-12T03:30:56.941Z,63.75
2023-01-12T03:33:23.884Z,61.93
2023-01-12T03:36:04.600Z,63.55
2023-01-12T03:38:38.095Z,63.09
2023-01-12T03:41:11.370Z,61.34
2023-01-12T03:43:43.239Z,61.34
2023-01-12T03:46:18.460Z,61.79
2023-01-12T03:48:52.746Z,62.86
2023-01-12T03:51:46.620Z,60.94
2023-01-12T03:54:13.227Z,61.42
2023-01-12T03:56:40.103Z,61.69
2023-01-12T03:59:06.815Z,62.78
2023-01-12T04:01:33.685Z,62.92
2023-01-12T04:04:00.386Z,63.18
2023-01-12T04:06:27.057Z,61.94
2023-01-12T04:08:53.699Z,63.53
2023-01-12T04:11:20.348Z,62.65
2023-01-12T04:13:47.002Z,63.12
2023-01-12T04:16:13.686Z,63.53
2023-01-12T04:18:40.338Z,63.31
2023-01-12T04:21:06.966Z,63.98
2023-01-12T04:23:33.570Z,64.06
2023-01-12T04:26:00.225Z,63.50
2023-01-12T04:28:26.879Z,63.94
2023-01-12T04:30:53.487Z,63.64
2023-01-12T04:33:20.088Z,64.12
2023-01-12T04:35:47.060Z,64.26
2023-01-12T04:38:13.641Z,64.45
2023-01-12T04:40:40.303Z,64.00
2023-01-12T04:43:08.628Z,64.18
2023-01-12T04:45:39.709Z,63.83
2023-01-12T04:48:08.961Z,64.10
2023-01-12T04:50:35.616Z,64.49
2023-01-12T04:53:03.369Z,64.45
2023-01-12T04:55:30.028Z,64.35
2023-01-12T04:57:56.967Z,64.37
2023-01-12T05:00:23.704Z,63.89
2023-01-12T05:02:50.295Z,64.49
2023-01-12T05:05:16.921Z,64.71
2023-01-12T05:07:43.657Z,64.72
2023-01-12T05:10:10.927Z,64.98
2023-01-12T05:12:37.540Z,64.58
2023-01-12T05:15:04.532Z,64.65
2023-01-12T05:17:32.304Z,65.09
2023-01-12T05:20:00.802Z,64.56
2023-01-12T05:22:27.753Z,64.36
2023-01-12T05:24:54.356Z,64.43
2023-01-12T05:27:20.961Z,64.65
2023-01-12T05:29:47.595Z,64.00
2023-01-12T05:32:14.213Z,64.55
2023-01-12T05:34:40.874Z,64.22
2023-01-12T05:37:07.482Z,64.56
2023-01-12T05:39:34.127Z,64.23
2023-01-12T05:42:00.801Z,64.70
2023-01-12T05:44:27.475Z,64.83
2023-01-12T05:46:54.145Z,64.99
2023-01-12T05:49:20.796Z,64.93
2023-01-12T05:51:47.470Z,64.83
2023-01-12T05:54:14.077Z,64.68
2023-01-12T05:56:40.807Z,65.32
2023-01-12T05:59:07.414Z,65.18
2023-01-12T06:01:34.086Z,65.03
2023-01-12T06:04:01.001Z,65.18
2023-01-12T06:06:28.753Z,65.02
2023-01-12T06:08:55.393Z,64.54
2023-01-12T06:11:22.172Z,64.84
2023-01-12T06:13:48.808Z,65.19
2023-01-12T06:16:15.460Z,64.68
2023-01-12T06:18:42.118Z,64.29
2023-01-12T06:21:08.987Z,64.60
2023-01-12T06:23:36.029Z,64.08
2023-01-12T06:26:03.708Z,64.46
2023-01-12T06:28:30.360Z,64.71
2023-01-12T06:31:01.422Z,64.86
2023-01-12T06:33:28.191Z,64.77
2023-01-12T06:35:57.680Z,64.92
2023-01-12T06:38:25.351Z,64.51
2023-01-12T06:40:51.985Z,64.49
2023-01-12T06:43:18.671Z,64.18
2023-01-12T06:45:45.477Z,64.67
2023-01-12T06:48:12.187Z,64.56
2023-01-12T06:50:38.897Z,64.75
2023-01-12T06:53:05.681Z,64.87
2023-01-12T06:55:32.348Z,64.86
2023-01-12T06:58:02.860Z,65.13
2023-01-12T07:00:29.503Z,65.51
2023-01-12T07:02:56.140Z,65.05
2023-01-12T07:05:22.779Z,65.31
2023-01-12T07:07:49.445Z,65.68
2023-01-12T07:10:16.395Z,65.25
2023-01-12T07:12:43.031Z,65.45
2023-01-12T07:15:10.235Z,65.52
2023-01-12T07:17:36.841Z,65.37
2023-01-12T07:20:03.662Z,65.04
2023-01-12T07:22:30.288Z,65.47
2023-01-12T07:24:57.837Z,65.16
2023-01-12T07:27:24.619Z,65.42
2023-01-12T07:29:51.260Z,65.25
2023-01-12T07:32:17.885Z,65.01
2023-01-12T07:34:44.529Z,64.59
2023-01-12T07:37:11.217Z,64.85
2023-01-12T07:39:39.127Z,65.15
2023-01-12T07:42:05.784Z,64.92
2023-01-12T07:44:32.411Z,64.70
2023-01-12T07:46:58.993Z,64.85
2023-01-12T07:49:26.287Z,64.59
2023-01-12T07:51:53.816Z,64.48
2023-01-12T07:54:20.485Z,64.78
2023-01-12T07:56:47.162Z,64.62
2023-01-12T07:59:13.886Z,65.17
2023-01-12T08:01:40.644Z,64.98
2023-01-12T08:04:07.449Z,64.57
2023-01-12T08:06:34.476Z,64.60
2023-01-12T08:09:01.129Z,65.18
2023-01-12T08:11:27.790Z,64.97
2023-01-12T08:13:58.040Z,65.25
2023-01-12T08:16:30.279Z,65.34
2023-01-12T08:19:18.225Z,64.69
2023-01-12T08:21:47.191Z,65.35
2023-01-12T08:24:15.140Z,65.24
2023-01-12T08:26:42.397Z,65.33
2023-01-12T08:29:16.880Z,63.34
2023-01-12T08:31:43.531Z,63.58
2023-01-12T08:34:10.202Z,62.90
2023-01-12T08:36:36.831Z,61.40
2023-01-12T08:39:03.438Z,62.02
2023-01-12T08:41:30.885Z,61.43
2023-01-12T08:43:57.473Z,60.46
2023-01-12T08:46:24.082Z,60.05
2023-01-12T08:48:50.767Z,61.12
2023-01-12T08:51:17.392Z,61.14
2023-01-12T08:53:44.019Z,60.76
2023-01-12T08:56:10.629Z,61.74
2023-01-12T08:58:37.415Z,60.48
2023-01-12T09:01:08.276Z,60.91
2023-01-12T09:03:36.013Z,60.38
2023-01-12T09:06:18.413Z,60.34
2023-01-12T09:08:45.251Z,60.04
2023-01-12T09:11:12.407Z,60.48
2023-01-12T09:13:39.104Z,60.79
2023-01-12T09:16:12.583Z,60.14
2023-01-12T09:18:40.154Z,61.20
2023-01-12T09:21:08.312Z,61.41
2023-01-12T09:23:35.140Z,61.42
2023-01-12T09:26:06.048Z,60.92
2023-01-12T09:28:32.901Z,60.70
2023-01-12T09:31:07.340Z,59.34
2023-01-12T09:33:35.632Z,59.79
2023-01-12T09:36:02.250Z,59.13
2023-01-12T09:38:29.044Z,58.60
2023-01-12T09:41:02.163Z,58.00
2023-01-12T09:43:29.080Z,57.50
2023-01-12T09:45:55.719Z,57.32
2023-01-12T09:48:22.414Z,57.18
2023-01-12T09:51:04.474Z,57.89
2023-01-12T09:53:33.292Z,58.25
2023-01-12T09:56:16.963Z,58.29
2023-01-12T09:59:06.303Z,58.14
2023-01-12T10:01:32.968Z,58.06
2023-01-12T10:04:00.144Z,56.48
2023-01-12T10:06:26.769Z,56.45
2023-01-12T10:08:56.689Z,55.63
2023-01-12T10:11:43.693Z,55.89
2023-01-12T10:14:32.163Z,55.11
2023-01-12T10:17:17.278Z,55.30
2023-01-12T10:20:09.619Z,54.46
2023-01-12T10:22:45.123Z,54.89
2023-01-12T10:25:32.932Z,55.09
2023-01-12T10:27:59.889Z,53.96
2023-01-12T10:30:33.903Z,53.40
2023-01-12T10:33:20.762Z,54.34
2023-01-12T10:36:10.580Z,53.42
2023-01-12T10:38:52.748Z,54.23
2023-01-12T10:41:20.471Z,53.75
2023-01-12T10:44:05.863Z,54.06
2023-01-12T10:46:33.556Z,53.71
2023-01-12T10:49:18.844Z,55.26
2023-01-12T10:51:56.388Z,56.39
2023-01-12T10:54:43.222Z,55.88
2023-01-12T10:57:20.336Z,55.81
2023-01-12T10:59:58.007Z,56.05
2023-01-12T11:02:25.672Z,55.88
2023-01-12T11:04:53.096Z,55.74
2023-01-12T11:07:20.379Z,55.26
2023-01-12T11:09:47.299Z,54.80
2023-01-12T11:12:30.402Z,54.64
2023-01-12T11:15:00.786Z,55.15
2023-01-12T11:17:53.525Z,56.12
2023-01-12T11:20:37.062Z,55.06
2023-01-12T11:23:07.352Z,54.12
2023-01-12T11:25:36.204Z,54.59
2023-01-12T11:28:43.201Z,54.77
2023-01-12T11:31:17.198Z,54.21
2023-01-12T11:33:49.455Z,54.73
2023-01-12T11:36:18.646Z,55.44
2023-01-12T11:38:57.882Z,53.32
2023-01-12T11:41:33.472Z,53.65
2023-01-12T11:44:08.075Z,53.55
2023-01-12T11:46:38.819Z,54.13
2023-01-12T11:49:17.403Z,53.73
2023-01-12T11:51:44.196Z,53.45
2023-01-12T11:54:14.023Z,52.39
2023-01-12T11:57:12.454Z,51.88
2023-01-12T11:59:42.469Z,52.42
2023-01-12T12:02:27.368Z,52.36
2023-01-12T12:05:03.554Z,53.15
2023-01-12T12:07:54.347Z,53.73
2023-01-12T12:10:30.602Z,53.09
2023-01-12T12:13:18.849Z,52.48
2023-01-12T12:16:10.399Z,52.56
2023-01-12T12:18:55.411Z,52.72
2023-01-12T12:21:31.121Z,52.22
2023-01-12T12:24:35.738Z,51.53
2023-01-12T12:27:12.279Z,51.42
2023-01-12T12:30:06.754Z,51.70
2023-01-12T12:33:14.714Z,51.89
2023-01-12T12:35:41.555Z,52.53
2023-01-12T12:38:26.572Z,51.47
2023-01-12T12:41:01.934Z,51.26
2023-01-12T12:43:32.958Z,52.05
2023-01-12T12:46:09.551Z,51.21
2023-01-12T12:48:57.251Z,50.90
2023-01-12T12:51:23.884Z,51.06
2023-01-12T12:53:50.501Z,52.15
2023-01-12T12:56:18.735Z,51.69
2023-01-12T12:58:48.775Z,51.57
2023-01-12T13:01:21.611Z,50.35
2023-01-12T13:03:54.960Z,50.14
2023-01-12T13:06:24.619Z,50.49
2023-01-12T13:08:55.567Z,51.76
2023-01-12T13:11:49.000Z,51.77
2023-01-12T13:14:31.831Z,52.08
2023-01-12T13:17:02.128Z,51.16
2023-01-12T13:19:39.723Z,51.90
2023-01-12T13:22:27.826Z,51.56
2023-01-12T13:25:20.995Z,51.70
2023-01-12T13:27:56.518Z,53.08
2023-01-12T13:30:26.962Z,51.35
2023-01-12T13:32:53.587Z,52.04
2023-01-12T13:35:28.414Z,52.82
2023-01-12T13:38:00.613Z,52.82
2023-01-12T13:40:30.759Z,53.65
2023-01-12T13:42:58.492Z,53.96
2023-01-12T13:45:25.291Z,54.80
2023-01-12T13:47:51.911Z,55.15
2023-01-12T13:50:25.901Z,55.73
2023-01-12T13:52:56.772Z,55.12
2023-01-12T13:55:24.726Z,55.03
2023-01-12T13:57:59.136Z,53.19
2023-01-12T14:00:26.058Z,53.90
2023-01-12T14:02:52.806Z,55.16
2023-01-12T14:05:54.928Z,54.62
2023-01-12T14:08:39.653Z,55.08
2023-01-12T14:11:25.312Z,55.82
2023-01-12T14:13:58.576Z,56.23
2023-01-12T14:16:25.292Z,54.61
2023-01-12T14:18:51.950Z,54.96
2023-01-12T14:21:34.516Z,56.52
2023-01-12T14:24:23.352Z,52.18
2023-01-12T14:26:50.063Z,50.99
2023-01-12T14:29:16.740Z,50.69
2023-01-12T14:31:47.477Z,52.50
2023-01-12T14:34:31.189Z,55.33
2023-01-12T14:36:57.919Z,51.57
2023-01-12T14:39:26.535Z,54.14
2023-01-12T14:41:56.452Z,51.31
2023-01-12T14:44:24.512Z,52.52
2023-01-12T14:46:52.916Z,53.24
2023-01-12T14:49:27.081Z,53.35
2023-01-12T14:51:54.268Z,53.00
2023-01-12T14:54:27.490Z,53.79
2023-01-12T14:56:56.982Z,57.23
2023-01-12T14:59:24.590Z,57.29
2023-01-12T15:01:54.342Z,56.79
2023-01-12T15:04:22.734Z,55.96
2023-01-12T15:07:00.592Z,56.38
2023-01-12T15:09:29.491Z,56.94
2023-01-12T15:11:56.339Z,56.28
2023-01-12T15:14:25.109Z,57.24
2023-01-12T15:16:52.864Z,55.93
2023-01-12T15:19:19.516Z,56.43
2023-01-12T15:21:46.198Z,56.83
2023-01-12T15:24:28.759Z,58.38
2023-01-12T15:27:05.726Z,58.12
2023-01-12T15:29:32.891Z,56.50
2023-01-12T15:31:59.646Z,57.30
2023-01-12T15:34:26.768Z,57.40
2023-01-12T15:36:53.481Z,56.89
2023-01-12T15:39:20.166Z,56.89
2023-01-12T15:41:46.814Z,56.52
2023-01-12T15:44:13.768Z,56.58
2023-01-12T15:46:40.767Z,57.95
2023-01-12T15:49:07.551Z,58.29
2023-01-12T15:51:34.399Z,59.21
2023-01-12T15:54:01.071Z,58.77
2023-01-12T15:56:28.193Z,58.29
2023-01-12T15:58:54.865Z,57.35
2023-01-12T16:01:21.642Z,58.61
2023-01-12T16:04:15.446Z,59.24
2023-01-12T16:06:34.879Z,57.34
2023-01-12T16:09:01.554Z,56.20
2023-01-12T16:11:28.166Z,57.17
2023-01-12T16:13:54.825Z,58.69
2023-01-12T16:16:21.571Z,59.34
2023-01-12T16:18:48.313Z,59.61
2023-01-12T16:21:15.870Z,59.27
2023-01-12T16:23:42.619Z,57.24
2023-01-12T16:26:09.908Z,57.49
2023-01-12T16:28:36.670Z,57.52
2023-01-12T16:31:07.368Z,54.73
2023-01-12T16:33:34.151Z,56.70
2023-01-12T16:36:00.849Z,58.06
2023-01-12T16:38:27.892Z,57.18
2023-01-12T16:40:54.511Z,58.54
2023-01-12T16:43:21.736Z,56.28
2023-01-12T16:45:48.415Z,57.51
2023-01-12T16:48:15.081Z,58.25
2023-01-12T16:50:42.188Z,58.26
2023-01-12T16:53:09.338Z,58.80
2023-01-12T16:55:37.967Z,59.54
2023-01-12T16:58:05.243Z,58.64
2023-01-12T17:00:31.931Z,59.39
2023-01-12T17:02:59.112Z,59.68
2023-01-12T17:05:25.792Z,60.52
2023-01-12T17:07:54.295Z,60.20
2023-01-12T17:10:21.709Z,57.25
2023-01-12T17:12:52.997Z,58.18
2023-01-12T17:15:23.036Z,58.92
2023-01-12T17:17:50.200Z,60.21
2023-01-12T17:20:17.154Z,59.25
2023-01-12T17:22:43.944Z,59.74
2023-01-12T17:25:10.915Z,59.13
2023-01-12T17:27:37.784Z,60.81
2023-01-12T17:30:04.902Z,60.90
2023-01-12T17:32:32.735Z,60.97
2023-01-12T17:34:59.504Z,58.83
2023-01-12T17:37:26.105Z,59.77
2023-01-12T17:39:52.815Z,60.29
2023-01-12T17:42:19.485Z,60.96
2023-01-12T17:44:46.108Z,61.17
2023-01-12T17:47:12.778Z,59.43
2023-01-12T17:49:39.503Z,59.76
2023-01-12T17:52:06.226Z,58.12
2023-01-12T17:54:32.952Z,60.37
2023-01-12T17:56:59.693Z,59.88
2023-01-12T17:59:26.427Z,57.93
2023-01-12T18:01:53.321Z,57.75
2023-01-12T18:04:20.053Z,58.17
2023-01-12T18:06:46.662Z,59.45
2023-01-12T18:09:13.424Z,58.78
2023-01-12T18:11:40.070Z,57.18
2023-01-12T18:14:06.992Z,58.97
2023-01-12T18:16:33.801Z,58.22
2023-01-12T18:19:02.383Z,58.50
2023-01-12T18:21:29.072Z,58.81
2023-01-12T18:23:58.439Z,58.65
2023-01-12T18:26:29.582Z,57.90
2023-01-12T18:28:56.560Z,59.20
2023-01-12T18:31:26.544Z,60.14
2023-01-12T18:33:55.660Z,59.75
2023-01-12T18:36:23.658Z,59.96
2023-01-12T18:38:50.781Z,59.84
2023-01-12T18:41:18.324Z,58.44
2023-01-12T18:43:44.976Z,59.41
2023-01-12T18:46:11.685Z,59.46
2023-01-12T18:48:38.537Z,58.82
2023-01-12T18:51:05.244Z,57.31
2023-01-12T18:53:31.863Z,57.82
2023-01-12T18:55:58.838Z,58.04
2023-01-12T18:58:27.109Z,56.88
2023-01-12T19:01:13.723Z,59.52
2023-01-12T19:03:40.655Z,59.80
2023-01-12T19:06:15.298Z,57.21
2023-01-12T19:08:42.099Z,56.81
2023-01-12T19:11:10.281Z,58.68
2023-01-12T19:13:37.445Z,58.57
2023-01-12T19:16:04.362Z,59.44
2023-01-12T19:18:31.050Z,57.69
2023-01-12T19:20:58.103Z,57.03
2023-01-12T19:23:24.763Z,59.01
2023-01-12T19:25:51.399Z,57.05
2023-01-12T19:28:18.128Z,59.06
2023-01-12T19:30:45.276Z,58.83
2023-01-12T19:33:12.426Z,57.78
2023-01-12T19:35:41.080Z,57.86
2023-01-12T19:38:08.638Z,59.01
2023-01-12T19:40:36.814Z,59.39
2023-01-12T19:43:03.638Z,59.29
2023-01-12T19:45:30.309Z,58.47
2023-01-12T19:47:57.001Z,58.44
2023-01-12T19:50:23.669Z,58.43
2023-01-12T19:52:50.336Z,59.31
2023-01-12T19:55:17.010Z,59.74
2023-01-12T19:57:43.732Z,59.48
2023-01-12T20:00:13.041Z,59.83
2023-01-12T20:02:39.889Z,60.31
2023-01-12T20:05:06.650Z,60.57
2023-01-12T20:07:33.292Z,58.91
2023-01-12T20:10:00.061Z,59.04
2023-01-12T20:12:26.795Z,58.90
2023-01-12T20:14:53.450Z,58.80
2023-01-12T20:17:20.363Z,58.22
2023-01-12T20:19:47.324Z,58.96
2023-01-12T20:22:13.939Z,58.70
2023-01-12T20:24:40.571Z,58.49
2023-01-12T20:27:07.246Z,58.19
2023-01-12T20:29:34.094Z,59.81
2023-01-12T20:32:00.797Z,58.68
2023-01-12T20:34:27.490Z,57.75
2023-01-12T20:36:54.141Z,59.36
2023-01-12T20:39:20.837Z,59.32
2023-01-12T20:41:47.511Z,60.81
2023-01-12T20:44:14.935Z,60.46
2023-01-12T20:46:41.630Z,60.67
2023-01-12T20:49:08.314Z,60.53
2023-01-12T20:51:35.095Z,59.64
2023-01-12T20:54:02.280Z,60.86
2023-01-12T20:56:28.949Z,59.77
2023-01-12T20:58:56.641Z,59.95
2023-01-12T21:01:23.422Z,60.76
2023-01-12T21:03:50.171Z,61.35
2023-01-12T21:06:17.177Z,60.26
2023-01-12T21:08:44.463Z,61.29
2023-01-12T21:11:15.409Z,59.96
2023-01-12T21:13:42.106Z,60.21
2023-01-12T21:16:08.904Z,59.37
2023-01-12T21:18:35.630Z,59.01
2023-01-12T21:21:02.943Z,60.31
2023-01-12T21:23:29.659Z,59.69
2023-01-12T21:25:56.306Z,58.78
2023-01-12T21:28:23.151Z,60.43
2023-01-12T21:30:49.880Z,59.85
2023-01-12T21:33:16.632Z,57.50
2023-01-12T21:35:43.293Z,58.80
2023-01-12T21:38:10.039Z,58.99
2023-01-12T21:40:37.168Z,58.14
2023-01-12T21:43:03.807Z,58.11
2023-01-12T21:45:30.458Z,58.14
2023-01-12T21:47:58.400Z,58.77
2023-01-12T21:50:25.059Z,57.82
2023-01-12T21:52:51.688Z,58.05
2023-01-12T21:55:18.436Z,59.54
2023-01-12T21:57:45.154Z,57.82
2023-01-12T22:00:12.226Z,59.00
2023-01-12T22:02:38.885Z,59.13
2023-01-12T22:05:05.692Z,60.13
2023-01-12T22:07:32.353Z,59.84
2023-01-12T22:09:59.049Z,59.48
2023-01-12T22:12:26.884Z,60.47
2023-01-12T22:14:53.575Z,61.19
2023-01-12T22:17:20.248Z,59.10
2023-01-12T22:19:46.853Z,59.73
2023-01-12T22:22:13.550Z,60.27
2023-01-12T22:24:40.178Z,60.49
2023-01-12T22:27:06.772Z,60.76
2023-01-12T22:29:33.493Z,61.72
2023-01-12T22:32:00.306Z,60.99
2023-01-12T22:34:27.028Z,61.11
2023-01-12T22:36:53.641Z,60.99
2023-01-12T22:39:20.274Z,60.12
2023-01-12T22:41:46.905Z,61.20
2023-01-12T22:44:13.594Z,60.68
2023-01-12T22:46:40.283Z,61.11
2023-01-12T22:49:06.891Z,61.29
2023-01-12T22:51:33.622Z,59.82
2023-01-12T22:54:00.258Z,59.04
2023-01-12T22:56:26.861Z,58.61
2023-01-12T22:58:54.340Z,59.04
2023-01-12T23:01:21.495Z,59.71
2023-01-12T23:03:48.236Z,59.15
2023-01-12T23:06:15.640Z,58.76
2023-01-12T23:08:42.828Z,58.54
2023-01-12T23:11:15.350Z,58.49
2023-01-12T23:13:42.605Z,58.60
2023-01-12T23:16:10.065Z,58.28
2023-01-12T23:18:38.774Z,58.70
2023-01-12T23:21:12.242Z,57.61
2023-01-12T23:23:38.889Z,58.05
2023-01-12T23:26:06.311Z,58.56
2023-01-12T23:28:32.963Z,58.38
2023-01-12T23:31:06.429Z,57.87
2023-01-12T23:33:33.208Z,58.01
2023-01-12T23:36:07.929Z,57.26
2023-01-12T23:38:34.781Z,58.24
2023-01-12T23:41:22.431Z,56.80
2023-01-12T23:43:50.019Z,58.11
2023-01-12T23:46:16.835Z,57.24
2023-01-12T23:48:43.584Z,57.28
2023-01-12T23:51:10.218Z,58.05
2023-01-12T23:53:36.911Z,57.27
2023-01-12T23:56:07.959Z,57.64
2023-01-12T23:58:34.634Z,57.72
